createdAt,value
2023-02-19T00:02:38.662Z,92.93
2023-02-19T00:06:16.510Z,92.72
2023-02-19T00:10:12.873Z,92.62
2023-02-19T00:13:39.458Z,92.37
2023-02-19T00:17:12.841Z,92.40
2023-02-19T00:21:10.322Z,92.58
2023-02-19T00:24:33.208Z,92.88
2023-02-19T00:28:30.117Z,92.70
2023-02-19T00:31:52.686Z,92.76
2023-02-19T00:35:29.792Z,92.64
2023-02-19T00:39:26.656Z,92.60
2023-02-19T00:43:08.011Z,92.48
2023-02-19T00:46:49.527Z,92.57
2023-02-19T00:50:11.943Z,92.64
2023-02-19T00:54:09.699Z,92.54
2023-02-19T00:57:50.512Z,92.55
2023-02-19T01:01:33.230Z,92.61
2023-02-19T01:04:55.244Z,92.59
2023-02-19T01:08:51.794Z,92.33
2023-02-19T01:12:15.104Z,92.18
2023-02-19T01:16:19.581Z,92.25
2023-02-19T01:19:41.939Z,92.21
2023-02-19T01:23:41.424Z,92.15
2023-02-19T01:27:03.513Z,91.84
2023-02-19T01:30:41.283Z,91.77
2023-02-19T01:34:39.299Z,91.72
2023-02-19T01:38:02.480Z,92.01
2023-02-19T01:41:41.782Z,92.14
2023-02-19T01:45:29.198Z,92.10
2023-02-19T01:49:20.697Z,92.23
2023-02-19T01:52:44.356Z,92.41
2023-02-19T01:56:45.132Z,92.20
2023-02-19T02:00:11.951Z,92.07
2023-02-19T02:03:49.452Z,92.05
2023-02-19T02:07:42.603Z,92.23
2023-02-19T02:11:07.340Z,92.05
2023-02-19T02:14:48.143Z,91.78
2023-02-19T02:18:50.724Z,91.98
2023-02-19T02:22:59.472Z,91.91
2023-02-19T02:27:12.382Z,92.14
2023-02-19T02:31:03.848Z,92.11
2023-02-19T02:34:46.235Z,92.30
2023-02-19T02:38:31.309Z,92.24
2023-02-19T02:42:27.879Z,92.35
2023-02-19T02:45:58.495Z,92.49
2023-02-19T02:50:06.637Z,92.45
2023-02-19T02:54:07.372Z,92.28
2023-02-19T02:57:30.685Z,92.15
2023-02-19T03:01:36.014Z,92.20
2023-02-19T03:05:44.200Z,92.27
2023-02-19T03:09:20.526Z,92.45
2023-02-19T03:13:04.580Z,92.34
2023-02-19T03:16:52.504Z,92.44
2023-02-19T03:20:38.306Z,92.48
2023-02-19T03:24:44.908Z,92.51
2023-02-19T03:28:49.116Z,92.69
2023-02-19T03:32:27.233Z,92.95
2023-02-19T03:35:58.349Z,92.83
2023-02-19T03:39:30.827Z,93.09
2023-02-19T03:43:33.308Z,93.10
2023-02-19T03:47:24.362Z,92.90
2023-02-19T03:51:09.278Z,92.90
2023-02-19T03:54:44.227Z,92.63
2023-02-19T03:58:19.778Z,92.50
2023-02-19T04:02:15.624Z,92.55
2023-02-19T04:06:09.185Z,92.83
2023-02-19T04:09:51.379Z,92.88
2023-02-19T04:13:29.564Z,93.05
2023-02-19T04:17:03.305Z,93.09
2023-02-19T04:20:37.496Z,93.31
2023-02-19T04:24:37.101Z,93.18
2023-02-19T04:28:02.557Z,93.14
2023-02-19T04:31:57.482Z,93.32
2023-02-19T04:35:40.211Z,93.39
2023-02-19T04:39:03.681Z,93.61
2023-02-19T04:42:41.532Z,93.81
2023-02-19T04:46:20.392Z,94.02
2023-02-19T04:49:55.879Z,93.97
2023-02-19T04:53:34.603Z,94.30
2023-02-19T04:57:32.627Z,94.14
2023-02-19T05:00:54.911Z,94.26
2023-02-19T05:04:32.702Z,94.36
2023-02-19T05:08:11.386Z,94.53
2023-02-19T05:11:49.207Z,94.67
2023-02-19T05:15:29.214Z,94.60
2023-02-19T05:19:22.201Z,94.65
2023-02-19T05:22:45.540Z,94.68
2023-02-19T05:26:23.576Z,94.69
2023-02-19T05:29:59.885Z,94.61
2023-02-19T05:33:56.328Z,94.82
2023-02-19T05:37:18.429Z,94.82
2023-02-19T05:40:56.165Z,94.87
2023-02-19T05:44:34.159Z,94.57
2023-02-19T05:48:30.477Z,94.34
2023-02-19T05:51:52.826Z,94.60
2023-02-19T05:55:34.533Z,94.87
2023-02-19T05:59:15.542Z,94.87
2023-02-19T06:02:46.692Z,94.92
2023-02-19T06:06:25.434Z,94.57
2023-02-19T06:10:01.238Z,94.78
2023-02-19T06:13:38.747Z,94.59
2023-02-19T06:17:16.726Z,94.77
2023-02-19T06:20:54.043Z,94.88
2023-02-19T06:24:50.405Z,95.06
2023-02-19T06:28:31.617Z,95.28
2023-02-19T06:31:55.157Z,95.18
2023-02-19T06:35:50.166Z,94.97
2023-02-19T06:39:16.650Z,95.22
2023-02-19T06:43:10.826Z,95.28
2023-02-19T06:46:35.552Z,95.65
2023-02-19T06:50:34.241Z,95.60
2023-02-19T06:53:56.113Z,95.81
2023-02-19T06:57:33.905Z,95.66
2023-02-19T07:01:12.223Z,95.83
2023-02-19T07:04:49.183Z,95.97
2023-02-19T07:08:45.811Z,95.89
2023-02-19T07:12:08.181Z,95.75
2023-02-19T07:16:07.714Z,95.89
2023-02-19T07:19:31.942Z,95.60
2023-02-19T07:23:07.817Z,95.99
2023-02-19T07:26:45.507Z,95.99
2023-02-19T07:30:42.129Z,96.30
2023-02-19T07:34:04.363Z,96.31
2023-02-19T07:37:43.767Z,96.46
2023-02-19T07:41:19.508Z,96.47
2023-02-19T07:45:00.498Z,96.28
2023-02-19T07:48:36.582Z,96.17
2023-02-19T07:52:12.414Z,96.55
2023-02-19T07:55:50.408Z,96.41
2023-02-19T07:59:27.690Z,96.81
2023-02-19T08:03:06.302Z,96.70
2023-02-19T08:06:43.669Z,96.99
2023-02-19T08:10:59.246Z,97.04
2023-02-19T08:14:26.302Z,97.34
2023-02-19T08:18:25.099Z,97.20
2023-02-19T08:21:47.357Z,97.36
2023-02-19T08:25:43.899Z,97.59
2023-02-19T08:29:06.577Z,97.27
2023-02-19T08:33:04.549Z,98.25
2023-02-19T08:36:46.024Z,98.16
2023-02-19T08:40:08.732Z,99.08
2023-02-19T08:44:04.536Z,99.91
2023-02-19T08:47:26.857Z,99.76
2023-02-19T08:51:23.433Z,100.00
2023-02-19T08:54:47.003Z,99.96
2023-02-19T08:58:43.272Z,100.00
2023-02-19T09:02:06.450Z,99.91
2023-02-19T09:06:02.885Z,99.98
2023-02-19T09:09:25.860Z,100.00
2023-02-19T09:13:21.668Z,100.00
2023-02-19T09:16:44.257Z,100.00
2023-02-19T09:20:21.949Z,99.97
2023-02-19T09:23:59.359Z,100.00
2023-02-19T09:27:37.003Z,100.00
2023-02-19T09:31:17.123Z,100.00
2023-02-19T09:35:11.225Z,100.00
2023-02-19T09:38:53.206Z,100.00
2023-02-19T09:42:29.826Z,100.00
2023-02-19T09:46:04.568Z,100.00
2023-02-19T09:49:39.798Z,100.00
2023-02-19T09:53:25.209Z,100.00
2023-02-19T09:57:17.880Z,100.00
2023-02-19T10:00:40.788Z,100.00
2023-02-19T10:04:18.405Z,100.00
2023-02-19T10:07:57.956Z,100.00
2023-02-19T10:11:58.798Z,100.00
2023-02-19T10:15:33.538Z,100.00
2023-02-19T10:19:20.722Z,100.00
2023-02-19T10:22:45.634Z,100.00
2023-02-19T10:26:41.650Z,100.00
2023-02-19T10:30:07.937Z,100.00
2023-02-19T10:33:55.669Z,100.00
2023-02-19T10:37:19.820Z,100.00
2023-02-19T10:41:06.231Z,100.00
2023-02-19T10:44:47.897Z,100.00
2023-02-19T10:48:24.826Z,100.00
2023-02-19T10:51:53.883Z,99.98
2023-02-19T10:55:37.826Z,99.99
2023-02-19T10:59:17.766Z,99.76
2023-02-19T11:02:47.244Z,100.00
2023-02-19T11:06:39.937Z,99.95
2023-02-19T11:10:03.442Z,99.47
2023-02-19T11:13:42.299Z,99.55
2023-02-19T11:17:36.279Z,99.19
2023-02-19T11:21:32.432Z,97.34
2023-02-19T11:25:02.464Z,97.92
2023-02-19T11:28:37.951Z,98.34
2023-02-19T11:32:30.176Z,98.27
2023-02-19T11:36:20.714Z,98.41
2023-02-19T11:40:02.875Z,98.19
2023-02-19T11:43:53.058Z,97.70
2023-02-19T11:47:46.069Z,97.57
2023-02-19T11:51:34.142Z,97.91
2023-02-19T11:55:23.568Z,97.64
2023-02-19T11:59:00.815Z,97.86
2023-02-19T12:02:59.212Z,97.49
2023-02-19T12:06:48.533Z,97.19
2023-02-19T12:10:14.016Z,96.67
2023-02-19T12:13:55.125Z,97.10
2023-02-19T12:17:54.570Z,97.32
2023-02-19T12:21:50.935Z,97.26
2023-02-19T12:25:38.718Z,97.25
2023-02-19T12:29:30.162Z,97.06
2023-02-19T12:33:45.425Z,96.64
2023-02-19T12:37:59.827Z,95.92
2023-02-19T12:41:57.004Z,96.01
2023-02-19T12:45:36.514Z,95.84
2023-02-19T12:49:32.755Z,95.35
2023-02-19T12:53:32.995Z,95.22
2023-02-19T12:57:12.578Z,95.16
2023-02-19T13:00:47.385Z,94.95
2023-02-19T13:04:50.906Z,94.60
2023-02-19T13:08:48.817Z,94.33
2023-02-19T13:12:27.641Z,93.75
2023-02-19T13:16:00.727Z,94.08
2023-02-19T13:19:33.614Z,94.27
2023-02-19T13:23:37.897Z,93.80
2023-02-19T13:27:17.498Z,93.13
2023-02-19T13:31:13.633Z,92.57
2023-02-19T13:35:16.361Z,92.38
2023-02-19T13:38:47.345Z,91.86
2023-02-19T13:42:31.219Z,91.36
2023-02-19T13:46:01.642Z,91.74
2023-02-19T13:49:33.831Z,91.88
2023-02-19T13:53:47.687Z,91.19
2023-02-19T13:57:29.153Z,90.08
2023-02-19T14:00:53.515Z,90.09
2023-02-19T14:04:43.759Z,90.03
2023-02-19T14:08:47.562Z,90.07
2023-02-19T14:12:14.404Z,90.21
2023-02-19T14:15:51.700Z,90.09
2023-02-19T14:19:48.983Z,89.82
2023-02-19T14:23:22.880Z,89.53
2023-02-19T14:27:10.256Z,88.69
2023-02-19T14:31:02.351Z,87.24
2023-02-19T14:34:46.681Z,86.60
2023-02-19T14:38:36.310Z,86.97
2023-02-19T14:42:05.586Z,86.11
2023-02-19T14:45:47.091Z,85.75
2023-02-19T14:49:45.644Z,84.51
2023-02-19T14:53:11.072Z,84.28
2023-02-19T14:56:51.358Z,84.53
2023-02-19T15:00:43.146Z,85.04
2023-02-19T15:04:34.528Z,85.83
2023-02-19T15:08:22.266Z,86.03
2023-02-19T15:11:45.780Z,85.48
2023-02-19T15:15:33.501Z,85.53
2023-02-19T15:19:05.128Z,85.69
2023-02-19T15:22:41.958Z,86.07
2023-02-19T15:26:36.976Z,86.17
2023-02-19T15:30:25.548Z,85.54
2023-02-19T15:34:15.577Z,85.69
2023-02-19T15:37:39.773Z,85.79
2023-02-19T15:41:21.211Z,85.28
2023-02-19T15:45:07.044Z,85.02
2023-02-19T15:48:57.422Z,85.48
2023-02-19T15:52:59.585Z,85.33
2023-02-19T15:56:48.369Z,84.29
2023-02-19T16:00:14.078Z,84.47
2023-02-19T16:04:16.637Z,84.43
2023-02-19T16:07:38.958Z,84.98
2023-02-19T16:11:22.611Z,84.86
2023-02-19T16:15:14.370Z,84.41
2023-02-19T16:18:37.181Z,84.60
2023-02-19T16:22:40.897Z,84.92
2023-02-19T16:26:04.342Z,84.79
2023-02-19T16:30:27.520Z,84.65
2023-02-19T16:33:50.740Z,84.66
2023-02-19T16:37:58.240Z,84.67
2023-02-19T16:41:21.171Z,84.61
2023-02-19T16:44:58.153Z,84.55
2023-02-19T16:48:35.391Z,85.20
2023-02-19T16:52:15.434Z,85.18
2023-02-19T16:56:17.825Z,85.37
2023-02-19T16:59:40.041Z,84.96
2023-02-19T17:03:23.824Z,84.89
2023-02-19T17:06:56.712Z,85.09
2023-02-19T17:10:33.119Z,84.71
2023-02-19T17:14:29.762Z,84.80
2023-02-19T17:17:52.451Z,84.92
2023-02-19T17:21:33.427Z,85.04
2023-02-19T17:25:09.980Z,84.79
2023-02-19T17:29:06.073Z,84.55
2023-02-19T17:32:50.094Z,84.65
2023-02-19T17:36:24.461Z,84.80
2023-02-19T17:40:31.893Z,85.00
2023-02-19T17:44:14.854Z,84.32
2023-02-19T17:47:37.090Z,84.55
2023-02-19T17:51:15.204Z,84.53
2023-02-19T17:54:52.516Z,84.63
2023-02-19T17:58:49.709Z,84.64
2023-02-19T18:02:11.842Z,84.83
2023-02-19T18:06:08.706Z,85.04
2023-02-19T18:09:53.666Z,85.04
2023-02-19T18:13:34.720Z,85.25
2023-02-19T18:17:15.837Z,85.09
2023-02-19T18:20:38.207Z,85.20
2023-02-19T18:24:17.645Z,85.20
2023-02-19T18:27:53.867Z,85.09
2023-02-19T18:31:49.980Z,85.31
2023-02-19T18:35:31.115Z,85.60
2023-02-19T18:39:12.186Z,85.67
2023-02-19T18:42:53.418Z,85.72
2023-02-19T18:46:16.508Z,85.74
2023-02-19T18:49:57.879Z,85.59
2023-02-19T18:53:31.834Z,85.58
2023-02-19T18:57:28.632Z,85.60
2023-02-19T19:00:52.252Z,85.82
2023-02-19T19:04:51.210Z,86.01
2023-02-19T19:08:13.289Z,86.16
2023-02-19T19:12:11.259Z,86.49
2023-02-19T19:15:34.228Z,86.15
2023-02-19T19:19:12.569Z,86.06
2023-02-19T19:22:51.545Z,85.95
2023-02-19T19:26:47.558Z,86.02
2023-02-19T19:30:30.094Z,86.24
2023-02-19T19:34:15.450Z,86.39
2023-02-19T19:37:56.592Z,86.48
2023-02-19T19:41:37.453Z,86.33
2023-02-19T19:45:00.330Z,86.18
2023-02-19T19:48:56.447Z,86.06
2023-02-19T19:52:37.419Z,86.13
2023-02-19T19:56:00.806Z,86.18
2023-02-19T19:59:39.661Z,86.20
2023-02-19T20:03:15.135Z,86.38
2023-02-19T20:06:53.075Z,86.60
2023-02-19T20:10:30.383Z,86.58
2023-02-19T20:14:11.335Z,86.43
2023-02-19T20:18:04.561Z,86.12
2023-02-19T20:21:27.131Z,86.13
2023-02-19T20:25:05.832Z,86.14
2023-02-19T20:28:45.331Z,86.30
2023-02-19T20:32:38.794Z,86.64
2023-02-19T20:36:01.181Z,86.59
2023-02-19T20:39:38.757Z,86.68
2023-02-19T20:43:16.196Z,86.54
2023-02-19T20:46:54.760Z,86.63
2023-02-19T20:50:31.372Z,86.53
2023-02-19T20:54:30.795Z,86.46
2023-02-19T20:57:52.862Z,86.55
2023-02-19T21:01:30.628Z,86.75
2023-02-19T21:05:27.232Z,86.76
2023-02-19T21:08:49.218Z,86.98
2023-02-19T21:12:26.818Z,87.05
2023-02-19T21:16:04.840Z,87.11
2023-02-19T21:19:42.314Z,86.53
2023-02-19T21:23:19.893Z,86.50
2023-02-19T21:26:57.669Z,86.36
2023-02-19T21:30:56.197Z,86.53
2023-02-19T21:34:22.044Z,86.74
2023-02-19T21:37:56.067Z,86.91
2023-02-19T21:41:33.975Z,86.99
2023-02-19T21:45:11.486Z,87.02
2023-02-19T21:49:12.198Z,86.95
2023-02-19T21:52:34.350Z,86.81
2023-02-19T21:56:20.474Z,86.67
2023-02-19T21:59:51.255Z,86.70
2023-02-19T22:03:28.624Z,86.69
2023-02-19T22:07:25.111Z,86.88
2023-02-19T22:10:47.523Z,87.30
2023-02-19T22:14:25.244Z,87.48
2023-02-19T22:18:03.304Z,87.59
2023-02-19T22:21:59.607Z,87.50
2023-02-19T22:25:23.913Z,87.42
2023-02-19T22:29:01.383Z,87.42
2023-02-19T22:32:39.566Z,87.34
2023-02-19T22:36:23.850Z,87.40
2023-02-19T22:40:12.022Z,87.15
2023-02-19T22:43:36.068Z,87.40
2023-02-19T22:47:12.974Z,87.59
2023-02-19T22:50:49.510Z,87.76
2023-02-19T22:54:29.829Z,87.76
2023-02-19T22:58:04.915Z,87.68
2023-02-19T23:02:01.403Z,87.47
2023-02-19T23:05:24.566Z,87.34
2023-02-19T23:09:09.839Z,87.19
2023-02-19T23:12:40.098Z,87.18
2023-02-19T23:16:16.966Z,87.11
2023-02-19T23:20:13.194Z,87.38
2023-02-19T23:23:36.480Z,87.53
2023-02-19T23:27:14.144Z,87.81
2023-02-19T23:30:52.030Z,88.14
2023-02-19T23:34:49.559Z,88.35
2023-02-19T23:38:12.153Z,88.23
2023-02-19T23:41:52.841Z,88.12
2023-02-19T23:45:27.394Z,87.89
2023-02-19T23:49:05.629Z,87.81
2023-02-19T23:52:42.782Z,87.78
2023-02-19T23:56:28.454Z,87.88
2023-02-19T23:59:58.162Z,87.80
